Time;durP1;ratioP1;P1;durP2;ratioP2;P2;SDS_P1;SDS_P2;PMS_P1;PMS_P2;Temp;Humidity;BMP_temperature;BMP_pressure;BME280_temperature;BME280_humidity;BME280_pressure;Samples;Min_cycle;Max_cycle;Signal;HPM_P1;HPM_P2
2022/03/03 00:02:09;;;;;;;23.17;16.02;;;21.50;43.90;;;;;;4952535;29;20071;-69
2022/03/03 00:04:35;;;;;;;21.80;16.23;;;21.60;44.00;;;;;;4952265;29;20445;-69
2022/03/03 00:07:01;;;;;;;21.02;15.25;;;21.60;44.00;;;;;;4952379;29;20024;-69
2022/03/03 00:09:27;;;;;;;21.58;14.27;;;21.60;43.90;;;;;;4951690;28;20046;-70
2022/03/03 00:11:52;;;;;;;20.20;14.43;;;21.60;43.90;;;;;;4953516;29;20503;-70
2022/03/03 00:14:18;;;;;;;20.95;15.27;;;21.50;43.80;;;;;;4953607;29;20057;-70
2022/03/03 00:16:44;;;;;;;22.65;15.35;;;21.60;43.90;;;;;;4953377;29;20043;-70
2022/03/03 00:19:09;;;;;;;19.35;14.55;;;21.60;44.00;;;;;;4952000;29;20127;-70
2022/03/03 00:21:35;;;;;;;21.15;15.13;;;21.60;44.00;;;;;;4951283;29;20039;-70
2022/03/03 00:24:01;;;;;;;21.40;15.55;;;21.60;43.90;;;;;;4953239;29;20084;-70
2022/03/03 00:26:27;;;;;;;21.67;14.30;;;21.50;43.90;;;;;;4936349;29;20396;-70
2022/03/03 00:28:52;;;;;;;21.52;15.15;;;21.50;43.90;;;;;;4953173;29;20489;-70
2022/03/03 00:31:18;;;;;;;18.92;13.70;;;21.50;44.00;;;;;;4952501;29;20038;-70
2022/03/03 00:33:44;;;;;;;20.20;14.38;;;21.50;44.00;;;;;;4953853;28;20447;-70
2022/03/03 00:36:10;;;;;;;21.98;14.85;;;21.50;44.00;;;;;;4953202;29;20039;-70
2022/03/03 00:38:36;;;;;;;21.35;15.07;;;21.50;44.10;;;;;;4953390;29;20038;-70
2022/03/03 00:41:02;;;;;;;19.08;13.93;;;21.50;44.10;;;;;;4952206;28;20031;-70
2022/03/03 00:43:28;;;;;;;22.17;15.07;;;21.50;44.10;;;;;;4951977;29;20042;-70
2022/03/03 00:45:54;;;;;;;19.65;14.02;;;21.50;44.10;;;;;;4953143;28;20023;-70
2022/03/03 00:48:19;;;;;;;21.80;14.30;;;21.50;44.10;;;;;;4936006;29;20127;-70
2022/03/03 00:50:46;;;;;;;19.30;13.82;;;21.50;44.10;;;;;;4952222;29;20118;-70
2022/03/03 00:53:11;;;;;;;20.35;14.80;;;21.50;44.00;;;;;;4951744;29;20046;-70
2022/03/03 00:55:37;;;;;;;20.33;14.40;;;21.50;44.70;;;;;;4920446;29;20039;-70
2022/03/03 00:58:03;;;;;;;19.63;13.50;;;21.50;44.10;;;;;;4952577;29;20050;-69
2022/03/03 01:00:30;;;;;;;18.88;13.90;;;21.50;44.10;;;;;;4952177;29;20473;-70
2022/03/03 01:02:55;;;;;;;19.05;13.40;;;21.50;44.10;;;;;;4952845;29;20199;-70
2022/03/03 01:05:21;;;;;;;20.65;14.07;;;21.50;44.10;;;;;;4953155;29;20505;-70
2022/03/03 01:07:47;;;;;;;19.45;12.93;;;21.50;44.00;;;;;;4951543;29;20031;-70
2022/03/03 01:10:13;;;;;;;20.25;14.05;;;21.50;44.10;;;;;;4950875;29;20035;-70
2022/03/03 01:12:39;;;;;;;17.90;13.20;;;21.50;44.10;;;;;;4937113;29;20407;-70
2022/03/03 01:15:07;;;;;;;18.08;12.88;;;21.50;44.00;;;;;;4956782;29;20042;-70
2022/03/03 01:17:33;;;;;;;18.15;13.68;;;21.50;44.00;;;;;;4955402;29;20086;-70
2022/03/03 01:19:59;;;;;;;18.52;12.98;;;21.50;44.10;;;;;;4955701;28;20045;-69
2022/03/03 01:22:25;;;;;;;17.70;13.10;;;21.50;44.10;;;;;;4955741;29;20134;-69
2022/03/03 01:24:51;;;;;;;19.90;13.63;;;21.50;44.10;;;;;;4956294;29;20027;-70
2022/03/03 01:27:17;;;;;;;17.83;12.85;;;21.50;44.10;;;;;;4955250;29;20027;-70
2022/03/03 01:29:42;;;;;;;18.50;13.00;;;21.50;44.10;;;;;;4954422;29;20036;-70
2022/03/03 01:32:08;;;;;;;16.63;12.05;;;21.50;44.10;;;;;;4955180;29;20042;-69
2022/03/03 01:34:35;;;;;;;17.15;12.88;;;21.50;44.10;;;;;;4955111;29;20496;-70
2022/03/03 01:37:02;;;;;;;18.27;12.70;;;21.50;44.10;;;;;;4955555;29;20078;-70
2022/03/03 01:39:27;;;;;;;18.13;13.20;;;21.50;44.10;;;;;;4955565;29;20023;-70
2022/03/03 01:41:53;;;;;;;17.92;12.73;;;21.50;44.10;;;;;;4954909;28;20038;-70
2022/03/03 01:44:19;;;;;;;19.70;13.45;;;21.50;44.10;;;;;;4956023;29;20090;-69
2022/03/03 01:46:54;;;;;;;19.52;13.40;;;21.50;44.20;;;;;;4956172;29;20035;-70
2022/03/03 01:49:21;;;;;;;19.45;13.27;;;21.50;44.20;;;;;;4954591;29;20051;-70
2022/03/03 01:51:47;;;;;;;18.35;12.68;;;21.50;44.20;;;;;;4954764;29;20106;-70
2022/03/03 01:54:14;;;;;;;19.83;13.13;;;21.50;44.20;;;;;;4938723;29;20130;-70
2022/03/03 01:56:41;;;;;;;19.60;13.35;;;21.50;44.20;;;;;;4938971;29;20042;-70
2022/03/03 01:59:07;;;;;;;18.30;12.48;;;21.50;44.20;;;;;;4938870;29;20042;-70
2022/03/03 02:01:35;;;;;;;17.88;12.27;;;21.50;44.80;;;;;;4955025;29;20229;-70
2022/03/03 02:04:05;;;;;;;18.77;13.07;;;21.50;44.20;;;;;;4955903;28;20028;-70
2022/03/03 02:06:31;;;;;;;18.42;12.32;;;21.50;44.20;;;;;;4955852;29;20090;-70
2022/03/03 02:08:57;;;;;;;17.30;11.82;;;21.50;44.20;;;;;;4955766;28;20027;-70
2022/03/03 02:11:23;;;;;;;17.85;12.50;;;21.50;44.10;;;;;;4953927;28;20039;-70
2022/03/03 02:13:49;;;;;;;16.92;11.95;;;21.50;44.20;;;;;;4955840;29;20042;-70
2022/03/03 02:16:15;;;;;;;16.88;11.95;;;21.50;44.10;;;;;;4954497;29;20035;-70
2022/03/03 02:18:42;;;;;;;17.58;11.98;;;21.50;44.10;;;;;;4954490;29;20106;-70
2022/03/03 02:21:13;;;;;;;17.08;11.13;;;21.50;44.10;;;;;;4937485;29;20062;-70
2022/03/03 02:23:40;;;;;;;16.13;12.00;;;21.50;44.10;;;;;;4955408;28;20023;-70
2022/03/03 02:26:08;;;;;;;17.90;11.82;;;21.50;44.10;;;;;;4955416;29;20490;-69
2022/03/03 02:28:34;;;;;;;16.63;11.73;;;21.50;44.20;;;;;;4954399;29;20312;-70
2022/03/03 02:31:00;;;;;;;17.15;11.52;;;21.50;44.10;;;;;;4954570;29;20027;-70
2022/03/03 02:33:26;;;;;;;16.92;11.55;;;21.50;44.10;;;;;;4955313;29;20102;-70
2022/03/03 02:35:51;;;;;;;16.92;12.40;;;21.50;44.10;;;;;;4955272;29;20444;-70
2022/03/03 02:38:17;;;;;;;16.88;11.45;;;21.50;44.10;;;;;;4955480;29;20043;-70
2022/03/03 02:40:43;;;;;;;19.65;12.05;;;21.50;44.10;;;;;;4952947;29;20055;-70
2022/03/03 02:43:08;;;;;;;18.73;12.27;;;21.40;44.10;;;;;;4938085;29;20043;-70
2022/03/03 02:45:34;;;;;;;15.32;11.43;;;21.50;44.20;;;;;;4955219;29;20420;-70
2022/03/03 02:48:00;;;;;;;16.50;11.88;;;21.50;44.20;;;;;;4955009;29;20027;-70
2022/03/03 02:50:26;;;;;;;16.30;11.52;;;21.50;44.20;;;;;;4953077;28;20349;-70
2022/03/03 02:53:02;;;;;;;17.88;11.48;;;21.40;44.20;;;;;;4955414;29;20436;-70
2022/03/03 02:55:28;;;;;;;15.82;10.98;;;21.40;44.10;;;;;;4968537;28;20049;-74
2022/03/03 02:57:54;;;;;;;18.42;11.93;;;21.50;44.10;;;;;;4974246;28;20034;-74
2022/03/03 03:00:31;;;;;;;16.58;11.55;;;21.40;44.10;;;;;;4955979;28;20038;-74
2022/03/03 03:02:56;;;;;;;15.07;10.75;;;21.40;44.10;;;;;;4973970;28;20026;-74
2022/03/03 03:05:22;;;;;;;17.23;11.73;;;21.40;44.10;;;;;;4974219;28;20027;-74
2022/03/03 03:07:49;;;;;;;16.17;11.27;;;21.40;44.20;;;;;;4974017;28;20053;-74
2022/03/03 03:10:15;;;;;;;16.90;11.23;;;21.50;44.20;;;;;;4973578;28;20072;-74
2022/03/03 03:12:41;;;;;;;16.05;11.13;;;21.40;44.10;;;;;;4972742;28;20034;-75
2022/03/03 03:15:08;;;;;;;16.05;11.20;;;21.40;44.10;;;;;;4956969;28;20031;-74
2022/03/03 03:17:33;;;;;;;16.20;10.85;;;21.40;44.20;;;;;;4972619;28;20027;-75
2022/03/03 03:20:00;;;;;;;18.55;11.75;;;21.50;44.10;;;;;;4973011;28;20030;-73
2022/03/03 03:22:25;;;;;;;16.20;10.90;;;21.50;44.10;;;;;;4972565;28;20106;-74
2022/03/03 03:24:51;;;;;;;17.38;11.05;;;21.50;44.20;;;;;;4974005;28;20031;-74
2022/03/03 03:27:17;;;;;;;16.33;10.98;;;21.50;44.10;;;;;;4973709;28;20392;-74
2022/03/03 03:29:42;;;;;;;16.70;10.75;;;21.50;44.10;;;;;;4971824;28;20073;-74
2022/03/03 03:32:08;;;;;;;16.13;11.15;;;21.50;44.10;;;;;;4973589;28;20041;-75
2022/03/03 03:34:34;;;;;;;16.42;10.98;;;21.40;44.20;;;;;;4972912;28;20023;-75
2022/03/03 03:36:59;;;;;;;15.88;10.82;;;21.40;44.00;;;;;;4973435;28;20034;-74
2022/03/03 03:39:25;;;;;;;15.45;10.48;;;21.50;44.20;;;;;;4973032;28;20557;-75
2022/03/03 03:41:51;;;;;;;15.95;10.43;;;21.40;44.10;;;;;;4972160;28;20457;-75
2022/03/03 03:44:16;;;;;;;16.27;11.10;;;21.50;44.10;;;;;;4956126;28;20102;-75
2022/03/03 03:46:42;;;;;;;15.80;10.80;;;21.40;44.10;;;;;;4973242;28;20048;-74
2022/03/03 03:49:08;;;;;;;15.55;10.38;;;21.40;44.00;;;;;;4973134;28;20113;-74
2022/03/03 03:51:34;;;;;;;15.02;10.25;;;21.40;44.00;;;;;;4972470;28;20034;-75
2022/03/03 03:53:59;;;;;;;15.18;10.27;;;21.40;44.10;;;;;;4955789;28;20661;-74
2022/03/03 03:56:25;;;;;;;15.15;10.63;;;21.40;44.10;;;;;;4973118;28;20027;-74
2022/03/03 03:58:50;;;;;;;14.60;10.35;;;21.40;44.10;;;;;;4973287;28;20035;-74
2022/03/03 04:01:17;;;;;;;15.65;10.52;;;21.40;44.10;;;;;;4972324;28;20034;-74
2022/03/03 04:03:42;;;;;;;17.05;11.20;;;21.40;44.10;;;;;;4971785;28;20023;-74
2022/03/03 04:06:08;;;;;;;15.00;10.68;;;21.40;44.20;;;;;;4972955;28;20026;-75
2022/03/03 04:08:34;;;;;;;15.75;10.55;;;21.40;44.20;;;;;;4972915;28;20025;-75
2022/03/03 04:11:01;;;;;;;15.10;10.63;;;21.40;44.20;;;;;;4972230;28;20117;-77
2022/03/03 04:13:26;;;;;;;13.70;9.63;;;21.40;44.10;;;;;;4972850;28;20042;-77
2022/03/03 04:15:52;;;;;;;15.30;10.40;;;21.40;44.10;;;;;;4973020;28;20022;-77
2022/03/03 04:18:18;;;;;;;14.90;10.73;;;21.40;44.50;;;;;;4972921;28;20106;-74
2022/03/03 04:20:44;;;;;;;15.25;10.23;;;21.40;44.10;;;;;;4972175;28;20051;-74
2022/03/03 04:23:10;;;;;;;15.68;10.40;;;21.40;44.10;;;;;;4971479;28;20118;-74
2022/03/03 04:25:36;;;;;;;14.88;10.05;;;21.40;44.10;;;;;;4972850;28;20119;-74
2022/03/03 04:28:02;;;;;;;13.88;9.30;;;21.40;44.20;;;;;;4972907;28;20026;-75
2022/03/03 04:30:28;;;;;;;15.20;10.35;;;21.40;44.00;;;;;;4971773;28;20031;-74
2022/03/03 04:32:53;;;;;;;14.65;9.75;;;21.50;44.10;;;;;;4972503;28;20026;-77
2022/03/03 04:35:19;;;;;;;14.23;9.50;;;21.50;44.10;;;;;;4955540;28;20105;-77
2022/03/03 04:37:45;;;;;;;14.02;9.70;;;21.50;44.10;;;;;;4972482;28;20090;-77
2022/03/03 04:40:11;;;;;;;13.95;9.27;;;21.50;44.10;;;;;;4971890;28;20034;-77
2022/03/03 04:42:36;;;;;;;15.10;10.07;;;21.40;44.00;;;;;;4972407;28;20471;-77
2022/03/03 04:45:03;;;;;;;13.75;9.60;;;21.40;44.10;;;;;;4971293;28;20034;-76
2022/03/03 04:47:29;;;;;;;14.63;9.48;;;21.50;44.10;;;;;;4972136;28;20030;-76
2022/03/03 04:49:55;;;;;;;14.00;9.75;;;21.40;44.00;;;;;;4954425;28;20031;-76
2022/03/03 04:52:21;;;;;;;13.63;9.55;;;21.40;44.10;;;;;;4972467;28;20038;-76
2022/03/03 04:54:48;;;;;;;13.75;9.55;;;21.40;44.10;;;;;;4972244;28;20109;-76
2022/03/03 04:57:14;;;;;;;15.73;10.02;;;21.40;44.10;;;;;;4972347;28;20376;-76
2022/03/03 04:59:40;;;;;;;13.82;9.20;;;21.40;44.10;;;;;;4971487;28;20219;-76
2022/03/03 05:02:06;;;;;;;15.05;10.32;;;21.40;44.10;;;;;;4972246;28;20023;-76
2022/03/03 05:04:32;;;;;;;13.60;9.07;;;21.40;44.10;;;;;;4972272;28;20023;-74
2022/03/03 05:06:57;;;;;;;14.52;9.82;;;21.40;44.20;;;;;;4972281;28;20026;-74
2022/03/03 05:09:23;;;;;;;13.30;9.25;;;21.40;44.10;;;;;;4971824;28;20472;-74
2022/03/03 05:11:49;;;;;;;13.68;9.77;;;21.40;44.10;;;;;;4972098;28;20031;-74
2022/03/03 05:14:14;;;;;;;13.70;9.10;;;21.40;44.00;;;;;;4972036;28;20410;-74
2022/03/03 05:16:40;;;;;;;15.15;9.90;;;21.40;44.10;;;;;;4972001;28;20070;-74
2022/03/03 05:19:06;;;;;;;14.80;9.73;;;21.40;44.00;;;;;;4972310;28;20392;-74
2022/03/03 05:21:31;;;;;;;13.80;9.00;;;21.30;44.00;;;;;;4971161;28;20035;-74
2022/03/03 05:23:58;;;;;;;14.65;9.02;;;21.40;44.10;;;;;;4971979;28;20114;-73
2022/03/03 05:26:24;;;;;;;15.30;9.45;;;21.40;44.10;;;;;;4972252;28;20058;-74
2022/03/03 05:28:50;;;;;;;13.13;9.10;;;21.40;44.20;;;;;;4972210;28;20066;-75
2022/03/03 05:31:16;;;;;;;15.38;9.77;;;21.40;44.10;;;;;;4971128;28;20388;-75
2022/03/03 05:33:43;;;;;;;12.90;8.88;;;21.40;44.10;;;;;;4971929;28;20164;-75
2022/03/03 05:36:10;;;;;;;13.55;9.38;;;21.40;44.10;;;;;;4972079;28;20031;-74
2022/03/03 05:38:37;;;;;;;14.35;9.35;;;21.40;44.10;;;;;;4971983;28;20065;-75
2022/03/03 05:41:04;;;;;;;13.88;9.07;;;21.40;44.10;;;;;;4953966;28;20395;-74
2022/03/03 05:43:31;;;;;;;15.00;9.32;;;21.40;44.00;;;;;;4971795;28;20484;-74
2022/03/03 05:45:57;;;;;;;13.63;9.05;;;21.40;44.10;;;;;;4971876;28;20093;-75
2022/03/03 05:48:25;;;;;;;13.93;9.35;;;21.40;44.00;;;;;;4972567;28;20081;-75
2022/03/03 05:50:52;;;;;;;13.38;8.85;;;21.30;44.00;;;;;;4953983;28;20035;-75
2022/03/03 05:53:19;;;;;;;14.18;9.52;;;21.40;44.00;;;;;;4971790;28;20026;-75
2022/03/03 05:55:50;;;;;;;14.38;9.00;;;21.30;44.00;;;;;;4971862;28;20031;-75
2022/03/03 05:58:19;;;;;;;15.75;9.27;;;21.40;44.00;;;;;;4972854;28;20121;-74
2022/03/03 06:00:51;;;;;;;13.90;8.95;;;21.30;44.00;;;;;;4974494;28;20031;-75
2022/03/03 06:03:19;;;;;;;13.95;9.15;;;21.30;44.10;;;;;;4975312;28;20058;-74
2022/03/03 06:05:52;;;;;;;12.65;8.77;;;21.40;44.60;;;;;;4975196;28;20023;-75
2022/03/03 06:08:23;;;;;;;13.98;8.43;;;21.30;44.00;;;;;;4958068;28;20042;-74
2022/03/03 06:10:53;;;;;;;14.18;9.07;;;21.40;44.00;;;;;;4974341;28;20035;-75
2022/03/03 06:13:30;;;;;;;12.48;8.48;;;21.30;44.00;;;;;;4941711;28;20027;-75
2022/03/03 06:15:56;;;;;;;13.27;9.07;;;21.30;44.00;;;;;;4957660;28;20070;-74
2022/03/03 06:18:26;;;;;;;12.95;8.35;;;21.30;44.00;;;;;;4975073;28;20112;-74
2022/03/03 06:20:52;;;;;;;13.18;9.07;;;21.30;44.00;;;;;;4972837;28;20038;-75
2022/03/03 06:23:19;;;;;;;14.85;9.30;;;21.30;44.00;;;;;;4957585;28;20608;-74
2022/03/03 06:25:49;;;;;;;14.43;9.40;;;21.30;44.00;;;;;;4975080;28;20364;-75
2022/03/03 06:28:14;;;;;;;15.07;9.15;;;21.30;44.00;;;;;;4957724;28;20089;-75
2022/03/03 06:30:40;;;;;;;15.45;9.27;;;21.30;44.00;;;;;;4973969;28;20034;-75
2022/03/03 06:33:06;;;;;;;13.40;8.85;;;21.30;44.00;;;;;;4974964;28;20037;-75
2022/03/03 06:35:36;;;;;;;15.00;9.50;;;21.30;44.00;;;;;;4941581;28;20045;-75
2022/03/03 06:38:06;;;;;;;13.55;8.65;;;21.30;44.00;;;;;;4974515;28;20038;-75
2022/03/03 06:40:33;;;;;;;14.48;8.68;;;21.30;44.00;;;;;;4974114;28;20031;-75
2022/03/03 06:43:01;;;;;;;12.48;8.70;;;21.30;44.60;;;;;;4974610;28;20042;-76
2022/03/03 06:45:31;;;;;;;12.23;8.25;;;21.30;44.00;;;;;;4957608;28;20056;-75
2022/03/03 06:47:57;;;;;;;;;;;21.40;44.00;;;;;;4957795;28;20031;-75
2022/03/03 06:50:24;;;;;;;13.70;8.90;;;21.40;44.10;;;;;;4973514;28;19960;-75
2022/03/03 06:52:50;;;;;;;14.48;8.75;;;21.30;43.90;;;;;;4973242;28;20038;-75
2022/03/03 06:55:22;;;;;;;12.82;8.73;;;21.30;43.80;;;;;;4974302;28;20031;-76
2022/03/03 06:57:54;;;;;;;12.40;8.13;;;21.30;44.00;;;;;;4957538;28;20503;-75
2022/03/03 07:00:22;;;;;;;13.45;8.63;;;21.30;44.00;;;;;;4973385;28;20042;-75
2022/03/03 07:02:48;;;;;;;13.38;8.75;;;21.30;44.00;;;;;;4974063;28;20031;-75
2022/03/03 07:05:17;;;;;;;12.75;8.75;;;21.30;44.00;;;;;;4956983;28;20038;-75
2022/03/03 07:07:44;;;;;;;12.68;8.30;;;21.30;44.00;;;;;;4972939;28;20034;-76
2022/03/03 07:10:11;;;;;;;13.77;9.00;;;21.30;44.00;;;;;;4972145;28;20038;-76
2022/03/03 07:12:37;;;;;;;12.77;8.50;;;21.30;43.80;;;;;;4974258;28;20027;-76
2022/03/03 07:15:03;;;;;;;13.43;8.93;;;21.40;43.90;;;;;;4956589;28;20038;-76
2022/03/03 07:17:44;;;;;;;12.85;8.45;;;21.40;44.00;;;;;;4972698;28;20061;-75
2022/03/03 07:20:16;;;;;;;12.95;8.52;;;21.40;43.90;;;;;;4972956;28;20034;-75
2022/03/03 07:23:03;;;;;;;13.82;8.57;;;21.40;44.00;;;;;;4940585;28;20396;-75
2022/03/03 07:25:39;;;;;;;12.98;8.45;;;21.40;43.80;;;;;;4956828;28;20062;-75
2022/03/03 07:28:10;;;;;;;12.43;8.43;;;21.40;44.00;;;;;;4973839;28;20114;-75
2022/03/03 07:30:40;;;;;;;12.30;8.32;;;21.40;43.90;;;;;;4971646;28;20037;-75
2022/03/03 07:33:18;;;;;;;13.30;8.77;;;21.40;43.90;;;;;;4956329;28;20037;-75
2022/03/03 07:35:48;;;;;;;11.82;8.13;;;21.40;44.00;;;;;;4973705;28;20039;-75
2022/03/03 07:38:15;;;;;;;;;;;21.40;43.90;;;;;;4974038;28;20050;-75
2022/03/03 07:40:43;;;;;;;13.63;8.82;;;21.40;43.90;;;;;;4972517;28;19914;-75
2022/03/03 07:43:13;;;;;;;13.18;8.38;;;21.50;43.90;;;;;;4972176;28;20494;-75
2022/03/03 07:45:39;;;;;;;12.05;8.00;;;21.50;43.90;;;;;;4956192;28;20027;-75
2022/03/03 07:48:06;;;;;;;12.27;8.23;;;21.50;43.80;;;;;;4972484;28;20023;-75
2022/03/03 07:50:34;;;;;;;12.13;8.07;;;21.50;43.90;;;;;;4955347;28;20090;-75
2022/03/03 07:53:00;;;;;;;13.45;8.38;;;21.50;43.80;;;;;;4972964;28;20051;-74
2022/03/03 07:55:27;;;;;;;12.55;8.10;;;21.50;43.70;;;;;;4973045;28;20041;-75
2022/03/03 07:58:02;;;;;;;12.23;8.23;;;21.50;43.90;;;;;;4955933;28;20487;-76
2022/03/03 08:00:34;;;;;;;12.20;8.45;;;21.50;43.80;;;;;;4972418;28;20117;-76
2022/03/03 08:03:03;;;;;;;11.77;8.02;;;21.50;43.70;;;;;;4973051;28;20472;-76
2022/03/03 08:05:32;;;;;;;11.52;7.85;;;21.50;43.80;;;;;;4939836;28;20039;-76
2022/03/03 08:08:01;;;;;;;12.80;8.02;;;21.50;43.90;;;;;;4971954;28;20432;-75
2022/03/03 08:10:28;;;;;;;12.80;8.27;;;21.40;43.80;;;;;;4955148;28;20117;-75
2022/03/03 08:12:56;;;;;;;12.15;8.23;;;21.40;43.70;;;;;;4972828;28;20034;-76
2022/03/03 08:15:22;;;;;;;13.50;8.40;;;21.40;43.80;;;;;;4972841;28;20577;-76
2022/03/03 08:17:53;;;;;;;11.60;7.65;;;21.40;43.80;;;;;;4971549;28;20054;-75
2022/03/03 08:20:20;;;;;;;13.52;8.45;;;21.40;43.80;;;;;;4954572;28;20412;-76
2022/03/03 08:22:47;;;;;;;12.15;8.35;;;21.40;43.80;;;;;;4955528;28;20063;-75
2022/03/03 08:25:13;;;;;;;11.45;7.72;;;21.40;43.90;;;;;;4972712;28;20062;-75
2022/03/03 08:27:40;;;;;;;12.75;7.93;;;21.40;44.00;;;;;;4955342;28;20399;-76
2022/03/03 08:30:08;;;;;;;12.25;8.57;;;21.30;43.80;;;;;;4954632;28;20018;-76
2022/03/03 08:32:37;;;;;;;12.35;8.55;;;21.30;43.90;;;;;;4972598;28;20472;-75
2022/03/03 08:35:25;;;;;;;13.02;8.52;;;21.40;43.90;;;;;;4971621;28;20030;-75
2022/03/03 08:38:08;;;;;;;11.20;7.90;;;21.40;44.00;;;;;;4972649;28;20031;-75
2022/03/03 08:40:34;;;;;;;11.77;7.88;;;21.40;44.00;;;;;;4970484;28;20602;-75
2022/03/03 08:43:04;;;;;;;12.63;8.07;;;21.40;43.90;;;;;;4972349;28;20023;-75
2022/03/03 08:45:31;;;;;;;;;;;21.40;44.00;;;;;;4972978;28;20023;-75
2022/03/03 08:48:06;;;;;;;13.70;8.23;;;21.40;44.00;;;;;;4972471;28;19909;-75
2022/03/03 08:50:34;;;;;;;12.45;8.52;;;21.30;43.90;;;;;;4971511;28;20113;-75
2022/03/03 08:53:00;;;;;;;12.80;8.30;;;21.40;43.90;;;;;;4972299;28;20236;-75
2022/03/03 08:55:27;;;;;;;12.32;8.13;;;21.40;43.90;;;;;;4998426;23;20046;-73
2022/03/03 08:57:53;;;;;;;12.68;8.18;;;21.40;43.80;;;;;;4991181;28;20105;-74
2022/03/03 09:00:20;;;;;;;12.60;8.02;;;21.40;44.10;;;;;;4973165;28;20365;-74
2022/03/03 09:02:48;;;;;;;12.25;8.50;;;21.40;43.80;;;;;;4990725;28;20027;-74
2022/03/03 09:05:14;;;;;;;12.80;8.25;;;21.40;43.90;;;;;;4991273;28;20035;-73
2022/03/03 09:07:40;;;;;;;11.75;7.72;;;21.40;43.90;;;;;;4991762;28;20018;-74
2022/03/03 09:10:07;;;;;;;11.27;7.55;;;21.40;43.90;;;;;;4990813;28;20366;-73
2022/03/03 09:12:33;;;;;;;12.05;8.10;;;21.40;43.90;;;;;;4990791;28;20026;-73
2022/03/03 09:14:58;;;;;;;10.90;7.60;;;21.40;43.90;;;;;;4991399;28;20130;-74
2022/03/03 09:17:24;;;;;;;12.65;8.15;;;21.40;44.00;;;;;;4991965;28;20041;-73
2022/03/03 09:19:50;;;;;;;11.88;8.27;;;21.30;43.90;;;;;;4989846;28;20033;-73
2022/03/03 09:22:16;;;;;;;11.57;8.00;;;21.30;44.00;;;;;;4992229;28;20027;-73
2022/03/03 09:24:42;;;;;;;11.65;7.82;;;21.30;43.90;;;;;;4991353;28;20101;-74
2022/03/03 09:27:08;;;;;;;11.70;7.88;;;21.30;43.90;;;;;;4991685;28;20093;-74
2022/03/03 09:29:34;;;;;;;11.77;7.88;;;21.30;43.90;;;;;;4990626;28;20039;-74
2022/03/03 09:32:02;;;;;;;12.15;7.43;;;21.30;43.80;;;;;;4991194;28;20030;-74
2022/03/03 09:34:28;;;;;;;11.15;7.88;;;21.30;44.00;;;;;;4994832;28;20037;-73
2022/03/03 09:36:58;;;;;;;14.10;7.20;;;21.30;43.80;;;;;;4995456;28;20037;-74
2022/03/03 09:39:24;;;;;;;11.82;7.60;;;21.30;44.00;;;;;;4993207;28;20406;-74
2022/03/03 09:41:52;;;;;;;10.82;7.18;;;21.30;43.90;;;;;;4993877;28;20046;-75
2022/03/03 09:44:22;;;;;;;12.77;8.07;;;21.30;43.90;;;;;;4995314;28;20026;-74
2022/03/03 09:46:48;;;;;;;12.18;7.93;;;21.30;43.90;;;;;;4994985;28;20018;-75
2022/03/03 09:49:14;;;;;;;10.43;7.15;;;21.30;43.90;;;;;;4995035;28;20099;-74
2022/03/03 09:51:40;;;;;;;11.45;7.15;;;21.30;43.90;;;;;;4994221;28;20023;-75
2022/03/03 09:54:06;;;;;;;11.32;7.13;;;21.30;43.90;;;;;;4995001;28;20060;-75
2022/03/03 09:56:32;;;;;;;9.80;6.70;;;21.30;44.00;;;;;;4995341;28;20030;-74
2022/03/03 09:58:57;;;;;;;11.50;6.93;;;21.30;44.00;;;;;;4994035;28;20034;-75
2022/03/03 10:01:33;;;;;;;11.02;7.35;;;21.30;43.90;;;;;;4992768;28;20035;-75
2022/03/03 10:04:17;;;;;;;12.13;7.45;;;21.30;43.90;;;;;;4993760;28;20527;-75
2022/03/03 10:06:43;;;;;;;11.40;7.13;;;21.30;43.80;;;;;;4994701;28;20066;-74
2022/03/03 10:09:10;;;;;;;11.60;7.63;;;21.30;43.80;;;;;;4993646;28;20504;-75
2022/03/03 10:11:57;;;;;;;11.55;7.53;;;21.30;44.40;;;;;;4992687;28;20109;-75
2022/03/03 10:14:38;;;;;;;11.23;7.40;;;21.30;43.70;;;;;;4994963;28;20494;-75
2022/03/03 10:17:05;;;;;;;11.20;7.60;;;21.30;43.90;;;;;;4994621;28;20037;-75
2022/03/03 10:19:33;;;;;;;11.55;7.28;;;21.30;43.90;;;;;;4993833;28;20606;-75
2022/03/03 10:21:58;;;;;;;10.32;6.93;;;21.30;43.90;;;;;;4994401;28;20037;-75
2022/03/03 10:24:27;;;;;;;11.27;6.95;;;21.30;44.00;;;;;;4993636;28;20454;-75
2022/03/03 10:27:02;;;;;;;8.95;6.10;;;21.30;44.00;;;;;;4994172;28;20019;-75
2022/03/03 10:29:30;;;;;;;9.65;6.70;;;21.30;43.90;;;;;;4993567;28;20106;-75
2022/03/03 10:31:57;;;;;;;10.23;6.72;;;21.30;44.00;;;;;;4994369;28;20050;-75
2022/03/03 10:34:29;;;;;;;10.13;6.78;;;21.30;43.90;;;;;;4994311;28;20049;-75
2022/03/03 10:37:00;;;;;;;11.18;7.32;;;21.20;43.80;;;;;;4994068;28;20081;-75
2022/03/03 10:39:38;;;;;;;10.20;6.45;;;21.30;43.90;;;;;;4960371;28;20418;-75
2022/03/03 10:42:21;;;;;;;10.98;6.82;;;21.30;44.00;;;;;;4993658;28;20035;-75
2022/03/03 10:44:51;;;;;;;9.32;6.70;;;21.20;44.00;;;;;;4993865;28;20057;-75
2022/03/03 10:47:20;;;;;;;10.10;6.38;;;21.20;44.00;;;;;;4993169;28;20034;-74
2022/03/03 10:49:52;;;;;;;10.77;6.65;;;21.20;43.90;;;;;;4993376;28;20026;-74
2022/03/03 10:52:19;;;;;;;9.68;5.97;;;21.20;43.90;;;;;;4992546;28;20018;-75
2022/03/03 10:54:53;;;;;;;9.45;6.45;;;21.20;44.00;;;;;;4993947;28;20380;-75
2022/03/03 10:57:29;;;;;;;8.85;6.63;;;21.20;44.00;;;;;;4993837;28;20022;-75
2022/03/03 10:59:59;;;;;;;9.85;6.30;;;21.20;44.00;;;;;;4993169;28;20034;-75
2022/03/03 11:02:28;;;;;;;10.40;6.68;;;21.20;44.00;;;;;;4993503;28;20030;-75
2022/03/03 11:04:55;;;;;;;9.23;6.32;;;21.20;43.90;;;;;;4994010;28;20030;-75
2022/03/03 11:07:22;;;;;;;9.23;6.10;;;21.20;44.00;;;;;;4993615;28;20034;-74
2022/03/03 11:09:50;;;;;;;8.40;5.93;;;21.30;43.90;;;;;;4992785;28;20041;-74
2022/03/03 11:12:16;;;;;;;10.35;6.63;;;21.30;44.00;;;;;;4993092;28;20062;-75
2022/03/03 11:14:43;;;;;;;10.82;6.65;;;21.30;44.00;;;;;;4993464;28;20037;-75
2022/03/03 11:17:12;;;;;;;11.48;5.97;;;21.30;44.00;;;;;;4975873;28;20114;-74
2022/03/03 11:19:39;;;;;;;8.20;6.07;;;21.30;43.90;;;;;;4992609;28;20121;-75
2022/03/03 11:22:05;;;;;;;8.90;6.18;;;21.30;44.00;;;;;;4991890;28;20084;-74
2022/03/03 11:24:35;;;;;;;8.90;5.75;;;21.30;43.90;;;;;;4993203;28;20030;-75
2022/03/03 11:27:02;;;;;;;9.85;5.97;;;21.30;43.90;;;;;;4993041;28;20483;-75
2022/03/03 11:29:30;;;;;;;8.80;6.00;;;21.30;44.00;;;;;;4991221;28;20081;-74
2022/03/03 11:32:02;;;;;;;8.43;5.47;;;21.30;44.00;;;;;;4992827;28;20033;-75
2022/03/03 11:34:32;;;;;;;9.27;5.80;;;21.30;43.90;;;;;;4991913;28;20026;-75
2022/03/03 11:37:09;;;;;;;9.68;5.88;;;21.30;44.00;;;;;;4991670;28;20073;-75
2022/03/03 11:40:02;;;;;;;9.25;5.85;;;21.30;44.00;;;;;;4992208;28;20073;-75
2022/03/03 11:42:36;;;;;;;8.57;5.50;;;21.30;44.00;;;;;;4992393;28;20154;-73
2022/03/03 11:45:13;;;;;;;8.18;5.90;;;21.30;44.00;;;;;;4992817;28;20042;-76
2022/03/03 11:47:47;;;;;;;10.07;6.20;;;21.30;44.00;;;;;;4991253;28;20034;-74
2022/03/03 11:50:20;;;;;;;9.68;5.90;;;21.30;44.00;;;;;;4991961;28;20392;-75
2022/03/03 11:52:59;;;;;;;9.20;6.00;;;21.30;44.00;;;;;;4991295;28;20446;-75
2022/03/03 11:55:41;;;;;;;8.18;5.40;;;21.30;44.10;;;;;;4993034;28;20507;-74
2022/03/03 11:58:26;;;;;;;10.00;5.38;;;21.20;44.00;;;;;;4994326;28;20376;-75
2022/03/03 12:00:58;;;;;;;8.93;5.78;;;21.20;44.00;;;;;;4992992;28;20031;-74
2022/03/03 12:03:27;;;;;;;9.20;5.55;;;21.30;44.00;;;;;;4993097;28;20411;-74
2022/03/03 12:06:08;;;;;;;9.35;5.90;;;21.30;44.00;;;;;;4993125;28;20044;-75
2022/03/03 12:08:42;;;;;;;9.85;6.13;;;21.20;44.00;;;;;;4992599;28;20479;-74
2022/03/03 12:11:09;;;;;;;9.05;5.30;;;21.20;44.00;;;;;;4993068;28;20042;-74
2022/03/03 12:13:38;;;;;;;8.23;5.53;;;21.30;44.00;;;;;;4992361;28;20038;-74
2022/03/03 12:16:17;;;;;;;9.63;5.95;;;21.30;44.00;;;;;;4992689;28;20561;-74
2022/03/03 12:18:45;;;;;;;8.40;5.65;;;21.30;44.00;;;;;;4991535;28;20044;-74
2022/03/03 12:21:24;;;;;;;9.63;5.32;;;21.30;44.00;;;;;;4991337;28;20114;-74
2022/03/03 12:23:50;;;;;;;7.43;5.20;;;21.30;44.00;;;;;;4975027;28;20076;-73
2022/03/03 12:26:16;;;;;;;8.68;5.53;;;21.30;43.90;;;;;;4975681;28;20034;-74
2022/03/03 12:28:45;;;;;;;8.82;5.75;;;21.30;43.90;;;;;;4992047;28;20022;-74
2022/03/03 12:31:21;;;;;;;8.75;5.40;;;21.30;43.90;;;;;;4991891;28;20089;-74
2022/03/03 12:34:07;;;;;;;7.55;4.93;;;21.30;43.90;;;;;;4990782;28;20026;-73
2022/03/03 12:36:36;;;;;;;8.07;5.55;;;21.30;44.60;;;;;;4991612;28;20040;-73
2022/03/03 12:39:04;;;;;;;7.18;5.20;;;21.30;44.00;;;;;;4992092;28;20034;-73
2022/03/03 12:41:32;;;;;;;7.03;5.07;;;21.30;44.00;;;;;;4989544;28;20049;-73